Time;durP1;ratioP1;P1;durP2;ratioP2;P2;SDS_P1;SDS_P2;PMS_P1;PMS_P2;Temp;Humidity;BMP_temperature;BMP_pressure;BME280_temperature;BME280_humidity;BME280_pressure;Samples;Min_cycle;Max_cycle;Signal;HPM_P1;HPM_P2
2022/02/16 00:00:09;;;;;;;2.13;1.92;;;11.50;78.40;;;;;;4814844;29;20468;-81
2022/02/16 00:02:41;;;;;;;2.10;1.90;;;11.40;78.40;;;;;;4830884;29;20049;-82
2022/02/16 00:05:08;;;;;;;2.63;2.00;;;11.50;78.40;;;;;;4845998;29;20196;-82
2022/02/16 00:07:35;;;;;;;1.80;1.70;;;11.50;78.40;;;;;;4814692;29;20030;-82
2022/02/16 00:10:01;;;;;;;1.77;1.67;;;11.50;78.50;;;;;;4814824;29;20069;-80
2022/02/16 00:12:27;;;;;;;2.30;2.10;;;11.50;78.50;;;;;;4814579;29;20069;-82
2022/02/16 00:14:54;;;;;;;2.33;2.13;;;11.40;78.40;;;;;;4814548;29;20089;-82
2022/02/16 00:17:19;;;;;;;2.83;1.88;;;11.50;78.50;;;;;;4830274;29;20432;-82
2022/02/16 00:19:45;;;;;;;2.22;2.00;;;11.50;78.50;;;;;;4800221;29;20472;-81
2022/02/16 00:22:11;;;;;;;1.98;1.75;;;11.50;78.50;;;;;;4829321;29;20037;-83
2022/02/16 00:24:36;;;;;;;2.30;2.10;;;11.40;78.40;;;;;;4846255;29;20382;-82
2022/02/16 00:27:02;;;;;;;2.10;1.90;;;11.50;78.50;;;;;;4814825;29;20427;-82
2022/02/16 00:29:28;;;;;;;2.03;1.83;;;11.50;78.50;;;;;;4799254;29;20133;-82
2022/02/16 00:31:54;;;;;;;2.40;2.20;;;11.40;78.40;;;;;;4814395;29;20041;-82
2022/02/16 00:34:21;;;;;;;1.98;1.83;;;11.50;78.50;;;;;;4814891;29;20111;-84
2022/02/16 00:36:47;;;;;;;3.00;2.08;;;11.50;78.50;;;;;;4814448;29;20045;-81
2022/02/16 00:39:13;;;;;;;1.85;1.75;;;11.50;78.50;;;;;;4814565;29;20030;-82
2022/02/16 00:41:39;;;;;;;2.05;1.85;;;11.40;78.40;;;;;;4784658;29;20539;-82
2022/02/16 00:44:05;;;;;;;2.05;1.85;;;11.50;78.50;;;;;;4799296;29;20065;-81
2022/02/16 00:46:31;;;;;;;2.10;1.90;;;11.50;78.50;;;;;;4814111;29;20034;-84
2022/02/16 00:48:57;;;;;;;2.80;2.10;;;11.50;78.50;;;;;;4799277;29;20052;-83
2022/02/16 00:51:23;;;;;;;2.05;1.85;;;11.50;78.50;;;;;;4814184;29;20034;-82
2022/02/16 00:53:49;;;;;;;2.25;1.88;;;11.50;78.50;;;;;;4829034;29;20037;-82
2022/02/16 00:56:15;;;;;;;2.45;1.77;;;11.50;78.50;;;;;;4829865;29;20034;-82
2022/02/16 00:58:41;;;;;;;2.25;2.03;;;11.50;78.50;;;;;;4813315;29;20053;-82
2022/02/16 01:01:07;;;;;;;1.95;1.83;;;11.50;78.50;;;;;;4814367;29;20069;-82
2022/02/16 01:03:33;;;;;;;2.17;1.98;;;11.50;78.50;;;;;;4799008;29;20064;-83
2022/02/16 01:06:01;;;;;;;2.22;2.00;;;11.50;78.50;;;;;;4785086;29;20029;-82
2022/02/16 01:08:29;;;;;;;2.45;1.90;;;11.50;78.50;;;;;;4813562;29;20160;-83
2022/02/16 01:10:55;;;;;;;2.28;2.05;;;11.50;78.50;;;;;;4813787;29;20065;-82
2022/02/16 01:13:24;;;;;;;3.28;2.33;;;11.50;78.50;;;;;;4829173;29;20034;-82
2022/02/16 01:15:52;;;;;;;2.25;2.00;;;11.50;78.50;;;;;;4813458;29;20098;-83
2022/02/16 01:18:19;;;;;;;2.10;1.90;;;11.50;78.50;;;;;;4828592;29;20098;-83
2022/02/16 01:20:46;;;;;;;3.75;2.15;;;11.50;78.50;;;;;;4814126;29;20092;-81
2022/02/16 01:23:13;;;;;;;2.70;2.30;;;11.50;78.50;;;;;;4813328;29;20073;-82
2022/02/16 01:25:41;;;;;;;2.58;2.17;;;11.50;78.60;;;;;;4828918;29;20495;-83
2022/02/16 01:28:21;;;;;;;2.63;2.33;;;11.50;78.50;;;;;;4815563;29;20030;-82
2022/02/16 01:30:48;;;;;;;2.60;2.22;;;11.50;78.50;;;;;;4814066;29;20125;-82
2022/02/16 01:33:18;;;;;;;2.95;2.42;;;11.50;78.60;;;;;;4814735;29;20102;-83
2022/02/16 01:35:48;;;;;;;2.40;2.20;;;11.50;78.50;;;;;;4784664;29;20038;-83
2022/02/16 01:38:14;;;;;;;3.70;2.40;;;11.50;78.60;;;;;;4827933;29;20053;-83
2022/02/16 01:40:47;;;;;;;4.00;2.65;;;11.50;78.60;;;;;;4814179;29;20503;-82
2022/02/16 01:43:13;;;;;;;2.70;2.28;;;11.50;78.60;;;;;;4813349;29;20132;-81
2022/02/16 01:45:41;;;;;;;2.53;2.25;;;11.50;78.60;;;;;;4798860;29;20029;-82
2022/02/16 01:48:10;;;;;;;3.25;2.35;;;11.50;78.60;;;;;;4813210;29;20042;-83
2022/02/16 01:50:36;;;;;;;2.97;2.50;;;11.50;78.60;;;;;;4812954;29;20045;-83
2022/02/16 01:53:03;;;;;;;2.47;2.20;;;11.50;78.60;;;;;;4798307;29;20085;-82
2022/02/16 01:55:32;;;;;;;2.90;2.45;;;11.50;78.60;;;;;;4813362;29;20061;-81
2022/02/16 01:57:59;;;;;;;3.05;2.47;;;11.50;78.60;;;;;;4827987;29;20052;-81
2022/02/16 02:00:45;;;;;;;2.67;2.45;;;11.50;78.60;;;;;;4815465;29;20429;-82
2022/02/16 02:03:11;;;;;;;2.85;2.40;;;11.50;78.60;;;;;;4812656;29;20094;-83
2022/02/16 02:05:48;;;;;;;3.53;2.67;;;11.50;78.60;;;;;;4800699;29;20356;-81
2022/02/16 02:08:13;;;;;;;3.38;2.55;;;11.50;78.60;;;;;;4812807;29;20499;-82
2022/02/16 02:10:40;;;;;;;2.92;2.40;;;11.50;78.60;;;;;;4783270;29;20036;-81
2022/02/16 02:13:06;;;;;;;2.65;2.40;;;11.50;78.70;;;;;;4827400;29;20034;-82
2022/02/16 02:15:43;;;;;;;3.13;2.47;;;11.50;78.70;;;;;;4813869;29;20062;-82
2022/02/16 02:18:29;;;;;;;2.92;2.35;;;11.50;78.60;;;;;;4827763;29;20049;-81
2022/02/16 02:20:54;;;;;;;3.15;2.72;;;11.50;78.60;;;;;;4813001;29;20034;-82
2022/02/16 02:23:21;;;;;;;2.65;2.28;;;11.50;78.70;;;;;;4798200;29;20517;-81
2022/02/16 02:25:48;;;;;;;3.03;2.50;;;11.50;78.70;;;;;;4812954;29;20038;-81
2022/02/16 02:28:20;;;;;;;3.67;2.55;;;11.50;78.70;;;;;;4827394;29;20034;-81
2022/02/16 02:30:47;;;;;;;3.08;2.50;;;11.50;78.70;;;;;;4827556;29;20085;-81
2022/02/16 02:33:14;;;;;;;3.33;2.75;;;11.50;78.70;;;;;;4813129;29;20392;-81
2022/02/16 02:35:40;;;;;;;3.05;2.75;;;11.50;78.70;;;;;;4812056;29;20030;-81
2022/02/16 02:38:06;;;;;;;3.92;2.80;;;11.50;78.70;;;;;;4827266;29;20411;-81
2022/02/16 02:40:32;;;;;;;3.47;2.63;;;11.50;78.70;;;;;;4797106;29;20037;-83
2022/02/16 02:42:58;;;;;;;2.97;2.38;;;11.50;78.70;;;;;;4827929;29;20459;-81
2022/02/16 02:45:28;;;;;;;3.85;2.92;;;11.50;78.70;;;;;;4813208;29;20471;-83
2022/02/16 02:47:55;;;;;;;2.83;2.50;;;11.50;79.10;;;;;;4827269;29;20081;-82
2022/02/16 02:50:21;;;;;;;4.07;3.03;;;11.50;78.70;;;;;;4782972;29;20094;-81
2022/02/16 02:52:46;;;;;;;3.00;2.65;;;11.50;78.70;;;;;;4782698;29;20041;-80
2022/02/16 02:55:14;;;;;;;3.85;2.88;;;11.50;78.70;;;;;;4811986;29;20529;-82
2022/02/16 02:57:42;;;;;;;3.55;2.85;;;11.50;78.70;;;;;;4812070;29;20038;-82
2022/02/16 03:00:11;;;;;;;3.88;2.85;;;11.50;78.70;;;;;;4827011;29;20555;-82
2022/02/16 03:02:39;;;;;;;3.08;2.47;;;11.60;78.80;;;;;;4812327;29;20033;-81
2022/02/16 03:05:05;;;;;;;2.75;2.50;;;11.50;78.70;;;;;;4827013;29;20034;-83
2022/02/16 03:07:31;;;;;;;3.83;2.63;;;11.60;78.80;;;;;;4811711;29;20029;-84
2022/02/16 03:09:57;;;;;;;3.80;2.78;;;11.60;78.80;;;;;;4811850;29;20034;-83
2022/02/16 03:12:23;;;;;;;3.65;2.70;;;11.50;78.70;;;;;;4826926;29;20026;-81
2022/02/16 03:14:50;;;;;;;2.80;2.50;;;11.60;78.80;;;;;;4826762;29;20057;-81
2022/02/16 03:17:17;;;;;;;2.75;2.40;;;11.60;78.80;;;;;;4812202;29;20088;-82
2022/02/16 03:19:43;;;;;;;3.90;2.90;;;11.60;78.80;;;;;;4812018;29;20038;-82
2022/02/16 03:22:09;;;;;;;3.13;2.70;;;11.60;78.80;;;;;;4826882;29;20030;-82
2022/02/16 03:24:35;;;;;;;2.63;2.40;;;11.60;78.80;;;;;;4811660;29;20129;-81
2022/02/16 03:27:03;;;;;;;3.05;2.35;;;11.60;78.70;;;;;;4811848;29;20034;-81
2022/02/16 03:29:48;;;;;;;3.15;2.50;;;11.60;78.80;;;;;;4813935;29;20029;-81
2022/02/16 03:32:15;;;;;;;3.22;2.33;;;11.60;78.70;;;;;;4827035;29;20097;-81
2022/02/16 03:34:41;;;;;;;4.45;2.80;;;11.60;78.80;;;;;;4811673;29;20527;-82
2022/02/16 03:37:08;;;;;;;2.70;2.40;;;11.60;78.80;;;;;;4827091;29;20045;-81
2022/02/16 03:39:35;;;;;;;3.85;2.45;;;11.60;78.70;;;;;;4811500;29;20064;-81
2022/02/16 03:42:01;;;;;;;3.45;2.50;;;11.60;79.40;;;;;;4826574;29;20041;-82
2022/02/16 03:44:27;;;;;;;3.10;2.47;;;11.60;78.70;;;;;;4827153;29;20375;-82
2022/02/16 03:46:56;;;;;;;2.85;2.30;;;11.60;78.70;;;;;;4811814;29;20033;-81
2022/02/16 03:49:23;;;;;;;3.50;2.55;;;11.60;78.70;;;;;;4812041;29;20359;-81
2022/02/16 03:51:51;;;;;;;3.42;2.60;;;11.60;78.70;;;;;;4811838;29;20124;-81
2022/02/16 03:54:17;;;;;;;2.95;2.60;;;11.60;78.70;;;;;;4826612;29;20531;-82
2022/02/16 03:56:44;;;;;;;2.72;2.25;;;11.60;78.70;;;;;;4811312;29;20030;-83
2022/02/16 03:59:11;;;;;;;3.33;2.35;;;11.60;78.70;;;;;;4811530;29;20078;-81
2022/02/16 04:01:51;;;;;;;3.45;2.42;;;11.60;78.70;;;;;;4826899;29;20129;-82
2022/02/16 04:04:17;;;;;;;3.10;2.55;;;11.60;78.70;;;;;;4811244;29;20128;-83
2022/02/16 04:06:43;;;;;;;3.88;2.42;;;11.60;78.70;;;;;;4810863;29;20034;-81
2022/02/16 04:09:09;;;;;;;3.75;2.55;;;11.60;78.70;;;;;;4812131;29;20060;-84
2022/02/16 04:11:35;;;;;;;3.47;2.42;;;11.70;78.70;;;;;;4781634;29;20030;-81
2022/02/16 04:14:00;;;;;;;2.92;2.20;;;11.60;78.70;;;;;;4810880;29;20087;-82
2022/02/16 04:16:27;;;;;;;2.30;2.03;;;11.60;78.70;;;;;;4811040;29;20511;-82
2022/02/16 04:18:53;;;;;;;2.75;2.28;;;11.60;78.70;;;;;;4826158;29;20045;-81
2022/02/16 04:21:19;;;;;;;2.60;2.10;;;11.60;78.70;;;;;;4810878;29;20030;-80
2022/02/16 04:23:50;;;;;;;3.20;2.40;;;11.60;78.70;;;;;;4797672;29;20053;-81
2022/02/16 04:26:16;;;;;;;2.40;2.08;;;11.60;78.70;;;;;;4811220;29;20042;-83
2022/02/16 04:28:44;;;;;;;2.45;2.20;;;11.70;78.70;;;;;;4811460;29;20061;-80
2022/02/16 04:31:12;;;;;;;2.85;2.28;;;11.60;78.70;;;;;;4811573;29;20045;-82
2022/02/16 04:33:38;;;;;;;2.88;2.40;;;11.60;78.70;;;;;;4811040;29;20467;-81
2022/02/16 04:36:04;;;;;;;2.72;2.10;;;11.70;78.70;;;;;;4827097;29;20049;-82
2022/02/16 04:38:30;;;;;;;3.30;2.60;;;11.60;78.70;;;;;;4827571;29;20038;-81
2022/02/16 04:40:56;;;;;;;2.65;2.08;;;11.60;78.70;;;;;;4828170;29;20026;-81
2022/02/16 04:43:23;;;;;;;2.65;2.08;;;11.70;78.70;;;;;;4812711;29;20049;-82
2022/02/16 04:45:48;;;;;;;2.85;2.05;;;11.70;78.70;;;;;;4828963;29;20041;-82
2022/02/16 04:48:16;;;;;;;2.75;1.92;;;11.60;78.70;;;;;;4813994;29;20042;-83
2022/02/16 04:50:43;;;;;;;2.33;1.92;;;11.70;78.70;;;;;;4814110;29;20061;-82
2022/02/16 04:53:09;;;;;;;2.35;2.15;;;11.70;78.70;;;;;;4829702;29;20133;-81
2022/02/16 04:55:37;;;;;;;2.30;2.10;;;11.70;78.70;;;;;;4814512;29;20435;-82
2022/02/16 04:58:10;;;;;;;1.98;1.80;;;11.70;78.70;;;;;;4814392;29;20042;-81
2022/02/16 05:00:37;;;;;;;2.10;1.88;;;11.70;78.70;;;;;;4798969;29;20042;-81
2022/02/16 05:03:13;;;;;;;2.20;1.98;;;11.70;78.70;;;;;;4829031;29;20570;-81
2022/02/16 05:05:39;;;;;;;2.65;2.05;;;11.70;78.70;;;;;;4798646;29;20042;-81
2022/02/16 05:08:05;;;;;;;1.98;1.83;;;11.70;78.70;;;;;;4813790;29;20034;-81
2022/02/16 05:10:31;;;;;;;2.78;1.98;;;11.70;78.70;;;;;;4828559;29;20048;-81
2022/02/16 05:13:00;;;;;;;2.58;2.03;;;11.70;78.70;;;;;;4784746;29;20030;-82
2022/02/16 05:15:26;;;;;;;2.65;2.10;;;11.70;78.70;;;;;;4828272;29;20434;-81
2022/02/16 05:17:52;;;;;;;2.20;2.00;;;11.70;78.70;;;;;;4828890;29;20121;-83
2022/02/16 05:20:35;;;;;;;2.20;2.00;;;11.70;78.70;;;;;;4828878;29;20037;-81
2022/02/16 05:23:03;;;;;;;2.80;2.05;;;11.70;78.70;;;;;;4814252;29;20061;-83
2022/02/16 05:25:30;;;;;;;2.47;2.15;;;11.70;78.70;;;;;;4813738;29;20519;-82
2022/02/16 05:27:56;;;;;;;2.58;1.98;;;11.70;78.70;;;;;;4828726;29;20041;-82
2022/02/16 05:30:22;;;;;;;1.98;1.67;;;11.70;78.70;;;;;;4829089;29;20117;-82
2022/02/16 05:32:48;;;;;;;2.67;2.08;;;11.70;79.30;;;;;;4813524;29;20052;-82
2022/02/16 05:35:14;;;;;;;3.15;1.98;;;11.70;78.70;;;;;;4813419;29;20379;-81
2022/02/16 05:37:40;;;;;;;2.67;2.20;;;11.70;78.70;;;;;;4813903;29;20372;-82
2022/02/16 05:40:07;;;;;;;2.17;1.90;;;11.70;78.70;;;;;;4813955;29;20086;-82
2022/02/16 05:42:36;;;;;;;2.30;2.00;;;11.70;78.70;;;;;;4813428;29;20111;-80
2022/02/16 05:45:03;;;;;;;2.13;1.80;;;11.70;78.70;;;;;;4812612;29;20065;-78
2022/02/16 05:47:29;;;;;;;1.70;1.60;;;11.70;78.70;;;;;;4827742;29;20025;-80
2022/02/16 05:49:55;;;;;;;2.42;2.00;;;11.70;78.70;;;;;;4812708;29;20440;-79
2022/02/16 05:52:21;;;;;;;2.20;1.88;;;11.70;78.70;;;;;;4813361;29;20333;-81
2022/02/16 05:54:46;;;;;;;2.58;2.00;;;11.70;78.70;;;;;;4828117;29;20030;-82
2022/02/16 05:57:12;;;;;;;1.88;1.73;;;11.70;78.70;;;;;;4812677;29;20042;-81
2022/02/16 05:59:39;;;;;;;2.65;1.90;;;11.70;79.30;;;;;;4783079;29;20032;-81
2022/02/16 06:02:06;;;;;;;2.60;1.90;;;11.70;78.70;;;;;;4798457;29;20038;-82
2022/02/16 06:04:33;;;;;;;2.38;2.05;;;11.80;78.70;;;;;;4827831;29;20375;-82
2022/02/16 06:07:00;;;;;;;1.77;1.67;;;11.70;78.70;;;;;;4813254;29;20042;-82
2022/02/16 06:09:27;;;;;;;2.83;2.05;;;11.80;78.80;;;;;;4813347;29;20026;-82
2022/02/16 06:11:53;;;;;;;2.10;1.83;;;11.70;78.70;;;;;;4827862;29;20480;-82
2022/02/16 06:14:23;;;;;;;1.80;1.70;;;11.80;78.70;;;;;;4813187;29;20432;-82
2022/02/16 06:16:57;;;;;;;2.40;2.00;;;11.80;78.70;;;;;;4827712;29;20056;-82
2022/02/16 06:19:22;;;;;;;1.65;1.55;;;11.80;78.70;;;;;;4782445;29;20034;-83
2022/02/16 06:21:48;;;;;;;1.83;1.70;;;11.80;78.70;;;;;;4782939;29;20037;-81
2022/02/16 06:24:15;;;;;;;2.00;1.80;;;11.80;78.70;;;;;;4797429;29;20063;-81
2022/02/16 06:26:40;;;;;;;2.00;1.80;;;11.80;78.70;;;;;;4782405;29;20042;-82
2022/02/16 06:29:08;;;;;;;1.70;1.60;;;11.80;78.70;;;;;;4797327;29;20466;-83
2022/02/16 06:31:48;;;;;;;1.75;1.65;;;11.80;78.70;;;;;;4801076;29;20471;-80
2022/02/16 06:34:17;;;;;;;1.70;1.60;;;11.80;78.70;;;;;;4827236;29;20041;-83
2022/02/16 06:36:43;;;;;;;1.60;1.50;;;11.80;78.70;;;;;;4811575;29;20037;-80
2022/02/16 06:39:09;;;;;;;1.70;1.60;;;11.80;78.70;;;;;;4811811;29;20026;-78
2022/02/16 06:41:35;;;;;;;1.85;1.70;;;11.80;78.70;;;;;;4811840;29;20052;-81
2022/02/16 06:44:01;;;;;;;1.65;1.55;;;11.80;78.70;;;;;;4797120;29;20045;-82
2022/02/16 06:46:27;;;;;;;1.95;1.60;;;11.80;78.80;;;;;;4811629;29;20030;-83
2022/02/16 06:48:53;;;;;;;1.63;1.52;;;11.80;78.70;;;;;;4811431;29;20052;-79
2022/02/16 06:51:19;;;;;;;1.77;1.67;;;11.80;78.70;;;;;;4811933;29;20344;-81
2022/02/16 06:53:46;;;;;;;1.70;1.60;;;11.80;78.70;;;;;;4826351;29;20026;-79
2022/02/16 06:56:12;;;;;;;1.70;1.60;;;11.80;78.70;;;;;;4811312;29;20033;-80
2022/02/16 06:58:57;;;;;;;2.15;1.52;;;11.80;78.70;;;;;;4828947;29;20129;-81
2022/02/16 07:01:23;;;;;;;1.70;1.52;;;11.80;78.70;;;;;;4796551;29;20132;-81
2022/02/16 07:03:49;;;;;;;1.45;1.35;;;11.80;78.70;;;;;;4811593;29;20459;-78
2022/02/16 07:06:19;;;;;;;1.60;1.50;;;11.90;78.80;;;;;;4811625;29;20029;-78
2022/02/16 07:08:47;;;;;;;1.60;1.50;;;11.80;78.70;;;;;;4826666;29;20506;-78
2022/02/16 07:11:13;;;;;;;1.52;1.42;;;11.80;78.70;;;;;;4796176;29;20045;-78
2022/02/16 07:13:39;;;;;;;1.90;1.70;;;11.80;78.80;;;;;;4811315;29;20030;-79
2022/02/16 07:16:04;;;;;;;1.70;1.60;;;11.90;78.80;;;;;;4811090;29;20519;-79
2022/02/16 07:18:33;;;;;;;1.88;1.67;;;11.80;78.70;;;;;;4826361;29;20042;-79
2022/02/16 07:21:12;;;;;;;2.40;1.55;;;11.90;78.80;;;;;;4800621;29;20455;-80
2022/02/16 07:23:39;;;;;;;1.48;1.38;;;11.90;78.80;;;;;;4826330;29;20041;-80
2022/02/16 07:26:07;;;;;;;1.35;1.27;;;11.90;78.80;;;;;;4826573;29;20033;-79
2022/02/16 07:28:33;;;;;;;1.50;1.40;;;11.90;78.80;;;;;;4826518;29;20038;-80
2022/02/16 07:30:59;;;;;;;1.40;1.30;;;11.90;78.70;;;;;;4796693;29;20030;-79
2022/02/16 07:33:27;;;;;;;1.50;1.40;;;11.90;78.80;;;;;;4811526;29;20061;-79
2022/02/16 07:35:53;;;;;;;1.67;1.50;;;11.90;78.80;;;;;;4796344;29;20030;-79
2022/02/16 07:38:20;;;;;;;1.35;1.25;;;11.90;78.80;;;;;;4810761;29;20042;-79
2022/02/16 07:40:47;;;;;;;1.60;1.50;;;11.90;78.80;;;;;;4826426;29;20033;-79
2022/02/16 07:43:17;;;;;;;1.40;1.20;;;11.90;78.80;;;;;;4811800;29;20034;-80
2022/02/16 07:46:10;;;;;;;1.60;1.50;;;11.90;78.80;;;;;;4813753;29;20411;-79
2022/02/16 07:48:39;;;;;;;1.50;1.40;;;11.90;78.70;;;;;;4811623;29;20367;-79
2022/02/16 07:51:14;;;;;;;1.33;1.23;;;11.90;78.70;;;;;;4826138;29;20065;-79
2022/02/16 07:54:09;;;;;;;1.60;1.40;;;11.90;78.70;;;;;;4826246;29;20077;-80
2022/02/16 07:56:38;;;;;;;1.45;1.35;;;11.90;78.70;;;;;;4811494;29;20363;-78
2022/02/16 07:59:04;;;;;;;1.52;1.42;;;12.00;78.80;;;;;;4810590;29;20030;-79
2022/02/16 08:01:30;;;;;;;1.60;1.50;;;11.90;78.80;;;;;;4796013;29;20066;-80
2022/02/16 08:04:15;;;;;;;1.60;1.50;;;11.90;78.80;;;;;;4810773;29;20169;-80
2022/02/16 08:06:44;;;;;;;1.38;1.27;;;11.90;78.80;;;;;;4814315;29;20034;-80
2022/02/16 08:09:11;;;;;;;1.23;1.23;;;12.00;78.80;;;;;;4826009;29;20040;-79
2022/02/16 08:11:42;;;;;;;1.40;1.30;;;12.00;78.80;;;;;;4811863;29;20446;-80
2022/02/16 08:14:09;;;;;;;1.33;1.30;;;12.00;78.80;;;;;;4811072;29;20386;-79
2022/02/16 08:16:56;;;;;;;1.23;1.17;;;12.00;78.80;;;;;;4814593;29;20121;-80
2022/02/16 08:19:23;;;;;;;1.30;1.20;;;12.00;78.80;;;;;;4814286;29;20503;-80
2022/02/16 08:21:52;;;;;;;1.20;1.10;;;12.00;78.80;;;;;;4829128;29;20075;-80
2022/02/16 08:24:18;;;;;;;1.42;1.33;;;12.00;78.80;;;;;;4814176;29;20049;-79
2022/02/16 08:26:47;;;;;;;1.20;1.15;;;12.00;78.80;;;;;;4800013;29;20129;-79
2022/02/16 08:29:15;;;;;;;1.48;1.38;;;12.10;78.80;;;;;;4814172;29;20041;-79
2022/02/16 08:31:42;;;;;;;1.27;1.17;;;12.10;78.80;;;;;;4814074;29;20387;-80
2022/02/16 08:34:11;;;;;;;1.48;1.38;;;12.10;78.90;;;;;;4829651;29;20046;-80
2022/02/16 08:37:03;;;;;;;1.30;1.20;;;12.10;78.90;;;;;;4817327;29;20042;-81
2022/02/16 08:39:29;;;;;;;1.25;1.20;;;12.10;78.90;;;;;;4813895;29;20034;-81
2022/02/16 08:41:55;;;;;;;1.20;1.10;;;12.10;78.90;;;;;;4813733;29;20029;-79
2022/02/16 08:44:21;;;;;;;1.23;1.20;;;12.10;78.90;;;;;;4828384;29;20102;-79
2022/02/16 08:46:47;;;;;;;1.65;1.50;;;12.10;78.90;;;;;;4813922;29;20434;-79
2022/02/16 08:49:13;;;;;;;1.30;1.20;;;12.10;78.90;;;;;;4798681;29;20129;-80
2022/02/16 08:51:39;;;;;;;1.40;1.30;;;12.20;78.90;;;;;;4813595;29;20030;-80
2022/02/16 08:54:05;;;;;;;1.58;1.45;;;12.10;78.90;;;;;;4828624;29;20118;-81
2022/02/16 08:56:31;;;;;;;1.50;1.40;;;12.20;78.90;;;;;;4783737;29;20133;-79
2022/02/16 08:58:58;;;;;;;1.35;1.25;;;12.20;78.90;;;;;;4813485;29;20045;-79
2022/02/16 09:01:24;;;;;;;1.55;1.45;;;12.20;78.90;;;;;;4845169;29;20100;-79
2022/02/16 09:03:50;;;;;;;1.60;1.50;;;12.20;78.90;;;;;;4845045;29;20125;-79
2022/02/16 09:06:16;;;;;;;1.80;1.70;;;12.20;78.90;;;;;;4813382;29;20093;-80
2022/02/16 09:08:41;;;;;;;1.70;1.60;;;12.20;78.90;;;;;;4828324;29;20046;-80
2022/02/16 09:11:07;;;;;;;1.50;1.40;;;12.20;78.90;;;;;;4828549;29;20499;-79
2022/02/16 09:13:33;;;;;;;1.70;1.60;;;12.30;79.00;;;;;;4828206;29;20373;-79
2022/02/16 09:16:00;;;;;;;1.52;1.42;;;12.30;79.00;;;;;;4828679;29;20466;-79
2022/02/16 09:18:25;;;;;;;1.60;1.50;;;12.30;78.90;;;;;;4814209;29;20120;-81
2022/02/16 09:20:51;;;;;;;1.70;1.60;;;12.30;78.90;;;;;;4828411;29;20125;-83
2022/02/16 09:23:17;;;;;;;1.50;1.40;;;12.30;78.90;;;;;;4813490;29;20041;-82
2022/02/16 09:25:44;;;;;;;1.50;1.40;;;12.30;78.90;;;;;;4813099;29;20038;-82
2022/02/16 09:28:11;;;;;;;2.15;1.70;;;12.30;78.90;;;;;;4827511;29;20038;-82
2022/02/16 09:30:37;;;;;;;1.63;1.52;;;12.30;78.90;;;;;;4812992;29;20041;-81
2022/02/16 09:33:04;;;;;;;1.77;1.67;;;12.40;78.90;;;;;;4813903;29;20038;-81
2022/02/16 09:35:30;;;;;;;2.13;1.92;;;12.40;79.00;;;;;;4827950;29;20038;-81
2022/02/16 09:37:55;;;;;;;1.92;1.73;;;12.40;78.90;;;;;;4813187;29;20038;-81
2022/02/16 09:40:21;;;;;;;1.73;1.63;;;12.40;78.90;;;;;;4798546;29;20037;-81
2022/02/16 09:42:47;;;;;;;1.80;1.67;;;12.40;78.90;;;;;;4813475;29;20026;-81
2022/02/16 09:45:14;;;;;;;1.95;1.77;;;12.40;78.90;;;;;;4797663;29;20045;-80
2022/02/16 09:47:42;;;;;;;2.35;1.95;;;12.40;78.90;;;;;;4812638;29;20044;-79
2022/02/16 09:50:11;;;;;;;1.85;1.65;;;12.50;78.90;;;;;;4812400;29;20038;-82
2022/02/16 09:52:38;;;;;;;2.25;1.80;;;12.50;78.90;;;;;;4812881;29;20133;-82
2022/02/16 09:55:06;;;;;;;1.83;1.63;;;12.50;78.90;;;;;;4812792;29;20040;-81
2022/02/16 09:57:31;;;;;;;2.33;1.90;;;12.50;78.90;;;;;;4812432;29;20033;-81
2022/02/16 09:59:57;;;;;;;1.80;1.70;;;12.50;78.90;;;;;;4827731;29;20038;-81
2022/02/16 10:02:37;;;;;;;1.83;1.58;;;12.50;78.90;;;;;;4827876;29;20026;-80
2022/02/16 10:05:04;;;;;;;1.95;1.70;;;12.50;79.00;;;;;;4827918;29;20045;-81
2022/02/16 10:07:36;;;;;;;2.00;1.80;;;12.60;78.90;;;;;;4812569;29;20026;-79
2022/02/16 10:10:20;;;;;;;2.10;1.90;;;12.60;79.00;;;;;;4844434;29;20034;-80
2022/02/16 10:12:50;;;;;;;2.00;1.80;;;12.60;79.00;;;;;;4827232;29;20034;-80
2022/02/16 10:15:18;;;;;;;2.47;2.00;;;12.60;78.90;;;;;;4826921;29;20049;-81
2022/02/16 10:17:44;;;;;;;2.17;1.73;;;12.60;78.90;;;;;;4843391;29;20125;-81
2022/02/16 10:20:12;;;;;;;2.40;1.90;;;12.60;78.90;;;;;;4813026;29;20383;-81
2022/02/16 10:22:42;;;;;;;2.08;1.85;;;12.70;78.90;;;;;;4827485;29;20121;-80
2022/02/16 10:25:09;;;;;;;3.63;2.00;;;12.70;78.90;;;;;;4827257;29;20395;-82
2022/02/16 10:27:35;;;;;;;2.33;1.88;;;12.70;78.90;;;;;;4812816;29;20072;-82
2022/02/16 10:30:10;;;;;;;2.85;2.13;;;12.70;78.90;;;;;;4812361;29;20433;-80
2022/02/16 10:32:36;;;;;;;2.10;1.77;;;12.70;79.00;;;;;;4811317;29;20094;-81
2022/02/16 10:35:02;;;;;;;2.72;1.92;;;12.70;78.90;;;;;;4827116;29;20026;-82
2022/02/16 10:37:34;;;;;;;1.92;1.73;;;12.80;79.00;;;;;;4827307;29;20084;-80
2022/02/16 10:40:12;;;;;;;2.25;2.00;;;12.70;78.90;;;;;;4827460;29;20498;-81
2022/02/16 10:42:38;;;;;;;2.28;1.88;;;12.80;79.00;;;;;;4811786;29;20038;-81
2022/02/16 10:45:10;;;;;;;2.50;2.03;;;12.80;78.90;;;;;;4826914;29;20030;-82
2022/02/16 10:48:02;;;;;;;3.05;2.20;;;12.80;79.00;;;;;;4811933;29;20361;-81
2022/02/16 10:50:44;;;;;;;2.40;1.90;;;12.80;79.00;;;;;;4826998;29;20483;-80
2022/02/16 10:53:11;;;;;;;2.30;1.77;;;12.90;79.00;;;;;;4811548;29;20040;-82
2022/02/16 10:55:42;;;;;;;2.00;1.80;;;12.90;78.90;;;;;;4811738;29;20038;-83
2022/02/16 10:58:14;;;;;;;2.63;1.88;;;12.90;79.00;;;;;;4826982;29;20057;-81
2022/02/16 11:00:43;;;;;;;2.70;1.95;;;12.90;79.00;;;;;;4826748;29;20041;-81
2022/02/16 11:03:10;;;;;;;2.55;1.80;;;13.00;79.00;;;;;;4842823;29;20491;-81
2022/02/16 11:05:47;;;;;;;1.70;1.60;;;13.00;79.00;;;;;;4826655;29;20034;-81
2022/02/16 11:08:14;;;;;;;2.80;2.08;;;13.00;79.00;;;;;;4826652;29;20045;-81
2022/02/16 11:10:42;;;;;;;2.95;2.00;;;13.00;78.90;;;;;;4796704;29;20030;-81
2022/02/16 11:13:10;;;;;;;2.95;2.15;;;13.00;78.90;;;;;;4810994;29;20110;-82
2022/02/16 11:15:38;;;;;;;3.08;2.05;;;13.00;78.90;;;;;;4811366;29;20091;-80
2022/02/16 11:18:14;;;;;;;3.20;2.03;;;13.10;78.90;;;;;;4826353;29;20052;-83
2022/02/16 11:20:40;;;;;;;3.83;2.30;;;13.10;79.00;;;;;;4842812;29;20481;-82
2022/02/16 11:23:06;;;;;;;3.53;2.22;;;13.10;78.90;;;;;;4827070;29;20034;-81
2022/02/16 11:25:37;;;;;;;3.55;2.10;;;13.10;78.90;;;;;;4826527;29;20133;-83
2022/02/16 11:28:11;;;;;;;2.55;2.10;;;13.20;79.00;;;;;;4826305;29;20399;-82
2022/02/16 11:30:38;;;;;;;4.40;2.30;;;13.20;78.90;;;;;;4843510;29;20034;-81
2022/02/16 11:33:22;;;;;;;3.15;2.38;;;13.20;78.90;;;;;;4826775;29;20149;-82
2022/02/16 11:35:56;;;;;;;2.58;1.90;;;13.20;79.00;;;;;;4826857;29;20038;-82
2022/02/16 11:38:24;;;;;;;3.05;1.88;;;13.20;78.90;;;;;;4811403;29;20038;-84
2022/02/16 11:40:50;;;;;;;3.10;2.10;;;13.30;79.00;;;;;;4811254;29;20022;-83
2022/02/16 11:43:19;;;;;;;2.83;2.20;;;13.30;79.00;;;;;;4826929;29;20045;-82
2022/02/16 11:45:52;;;;;;;2.08;1.77;;;13.30;78.90;;;;;;4826837;29;20030;-82
2022/02/16 11:48:50;;;;;;;3.58;2.47;;;13.30;78.90;;;;;;4826489;29;20075;-81
2022/02/16 11:51:25;;;;;;;3.63;1.75;;;13.30;79.00;;;;;;4826775;29;20042;-81
2022/02/16 11:53:52;;;;;;;2.75;1.90;;;13.30;78.90;;;;;;4830211;29;20030;-81
2022/02/16 11:56:22;;;;;;;3.42;2.00;;;13.30;78.80;;;;;;4815927;29;20134;-81
2022/02/16 11:59:13;;;;;;;2.30;1.88;;;13.40;79.00;;;;;;4830284;29;20094;-80
2022/02/16 12:02:15;;;;;;;2.58;1.65;;;13.40;79.00;;;;;;4829672;29;20026;-81
2022/02/16 12:04:55;;;;;;;3.08;1.90;;;13.40;79.10;;;;;;4739024;30;20121;-80
2022/02/16 12:07:22;;;;;;;2.13;1.63;;;13.40;78.90;;;;;;4836811;29;20054;-81
2022/02/16 12:10:26;;;;;;;3.53;1.80;;;13.40;78.80;;;;;;4829336;29;20036;-79
2022/02/16 12:12:55;;;;;;;2.22;1.70;;;13.40;79.00;;;;;;4754031;30;20039;-79
2022/02/16 12:15:21;;;;;;;2.67;1.85;;;13.50;78.90;;;;;;4724051;30;20147;-79
2022/02/16 12:17:47;;;;;;;3.85;2.00;;;13.50;78.90;;;;;;4782984;29;20133;-77
2022/02/16 12:20:12;;;;;;;2.38;1.90;;;13.50;78.90;;;;;;4829307;29;20492;-79
2022/02/16 12:22:43;;;;;;;2.65;2.00;;;13.50;78.80;;;;;;4829025;29;20194;-79
2022/02/16 12:25:17;;;;;;;4.20;1.92;;;13.50;78.90;;;;;;4845768;29;20034;-80
2022/02/16 12:27:46;;;;;;;3.80;2.08;;;13.60;78.90;;;;;;4815912;29;20133;-78
2022/02/16 12:30:12;;;;;;;3.13;2.03;;;13.60;78.80;;;;;;4814042;29;20083;-79
2022/02/16 12:32:44;;;;;;;3.03;1.95;;;13.60;78.80;;;;;;4829178;29;20044;-79
2022/02/16 12:35:10;;;;;;;4.13;2.35;;;13.60;78.80;;;;;;4829259;29;20117;-79
2022/02/16 12:37:38;;;;;;;3.20;1.92;;;13.60;78.80;;;;;;4814626;29;20499;-81
2022/02/16 12:40:10;;;;;;;4.45;2.28;;;13.70;78.80;;;;;;4829046;29;20178;-78
2022/02/16 12:42:44;;;;;;;4.13;2.15;;;13.70;78.80;;;;;;4814259;29;20491;-79
2022/02/16 12:45:15;;;;;;;3.40;2.40;;;13.70;78.80;;;;;;4845228;29;20034;-79
2022/02/16 12:47:41;;;;;;;4.30;2.30;;;13.70;78.70;;;;;;4829216;29;20042;-78
2022/02/16 12:50:09;;;;;;;3.35;2.30;;;13.70;78.70;;;;;;4814086;29;20108;-79
2022/02/16 12:52:34;;;;;;;3.60;2.17;;;13.80;78.80;;;;;;4829057;29;20502;-80
2022/02/16 12:55:03;;;;;;;4.13;2.03;;;13.80;78.80;;;;;;4828449;29;20042;-78